sensor_id;sensor_type;location;lat;lon;timestamp;pressure;altitude;pressure_sealevel;temperature;humidity
55010;BME280;40903;51.638;7.528;2023-11-19T00:02:07;100324.91;;;10.35;100.00
55010;BME280;40903;51.638;7.528;2023-11-19T00:04:37;100321.06;;;10.36;100.00
55010;BME280;40903;51.638;7.528;2023-11-19T00:07:05;100335.69;;;10.40;100.00
55010;BME280;40903;51.638;7.528;2023-11-19T00:09:32;100341.88;;;10.45;100.00
55010;BME280;40903;51.638;7.528;2023-11-19T00:11:58;100344.88;;;10.44;100.00
55010;BME280;40903;51.638;7.528;2023-11-19T00:14:26;100351.69;;;10.46;100.00
55010;BME280;40903;51.638;7.528;2023-11-19T00:16:52;100355.22;;;10.47;100.00
55010;BME280;40903;51.638;7.528;2023-11-19T00:19:19;100348.94;;;10.46;100.00
55010;BME280;40903;51.638;7.528;2023-11-19T00:21:44;100353.81;;;10.49;100.00
55010;BME280;40903;51.638;7.528;2023-11-19T00:24:11;100348.06;;;10.51;100.00
55010;BME280;40903;51.638;7.528;2023-11-19T00:26:37;100339.06;;;10.50;100.00
55010;BME280;40903;51.638;7.528;2023-11-19T00:29:03;100335.22;;;10.51;100.00
55010;BME280;40903;51.638;7.528;2023-11-19T00:31:29;100326.75;;;10.53;100.00
55010;BME280;40903;51.638;7.528;2023-11-19T00:33:55;100331.59;;;10.56;100.00
55010;BME280;40903;51.638;7.528;2023-11-19T00:36:20;100322.81;;;10.59;100.00
55010;BME280;40903;51.638;7.528;2023-11-19T00:38:46;100320.09;;;10.59;100.00
55010;BME280;40903;51.638;7.528;2023-11-19T00:41:11;100313.56;;;10.60;100.00
55010;BME280;40903;51.638;7.528;2023-11-19T00:43:37;100314.06;;;10.62;100.00
55010;BME280;40903;51.638;7.528;2023-11-19T00:46:03;100320.63;;;10.61;100.00
55010;BME280;40903;51.638;7.528;2023-11-19T00:48:32;100316.19;;;10.78;100.00
55010;BME280;40903;51.638;7.528;2023-11-19T00:51:00;100303.28;;;10.84;100.00
55010;BME280;40903;51.638;7.528;2023-11-19T00:53:26;100302.66;;;10.87;100.00
55010;BME280;40903;51.638;7.528;2023-11-19T00:55:51;100300.16;;;10.90;100.00
55010;BME280;40903;51.638;7.528;2023-11-19T00:58:17;100292.47;;;10.92;100.00
55010;BME280;40903;51.638;7.528;2023-11-19T01:00:43;100288.34;;;10.95;100.00
55010;BME280;40903;51.638;7.528;2023-11-19T01:03:10;100289.06;;;11.00;100.00
55010;BME280;40903;51.638;7.528;2023-11-19T01:05:37;100290.66;;;11.01;100.00
55010;BME280;40903;51.638;7.528;2023-11-19T01:08:02;100285.22;;;11.01;100.00
55010;BME280;40903;51.638;7.528;2023-11-19T01:10:30;100281.59;;;11.06;100.00
55010;BME280;40903;51.638;7.528;2023-11-19T01:12:56;100281.34;;;11.16;100.00
55010;BME280;40903;51.638;7.528;2023-11-19T01:15:21;100273.88;;;11.21;100.00
55010;BME280;40903;51.638;7.528;2023-11-19T01:17:51;100270.22;;;11.26;100.00
55010;BME280;40903;51.638;7.528;2023-11-19T01:20:16;100266.56;;;11.44;100.00
55010;BME280;40903;51.638;7.528;2023-11-19T01:22:42;100269.78;;;11.46;100.00
55010;BME280;40903;51.638;7.528;2023-11-19T01:25:09;100277.34;;;11.49;100.00
55010;BME280;40903;51.638;7.528;2023-11-19T01:27:34;100281.72;;;11.50;100.00
55010;BME280;40903;51.638;7.528;2023-11-19T01:30:03;100285.47;;;11.54;100.00
55010;BME280;40903;51.638;7.528;2023-11-19T01:32:31;100278.88;;;11.55;100.00
55010;BME280;40903;51.638;7.528;2023-11-19T01:34:57;100288.41;;;11.57;100.00
55010;BME280;40903;51.638;7.528;2023-11-19T01:37:23;100279.91;;;11.59;100.00
55010;BME280;40903;51.638;7.528;2023-11-19T01:39:49;100269.69;;;11.64;100.00
55010;BME280;40903;51.638;7.528;2023-11-19T01:42:14;100266.22;;;11.72;100.00
55010;BME280;40903;51.638;7.528;2023-11-19T01:44:41;100260.44;;;11.73;100.00
55010;BME280;40903;51.638;7.528;2023-11-19T01:47:07;100262.53;;;11.76;100.00
55010;BME280;40903;51.638;7.528;2023-11-19T01:49:34;100252.31;;;11.82;100.00
55010;BME280;40903;51.638;7.528;2023-11-19T01:52:00;100245.72;;;11.83;100.00
55010;BME280;40903;51.638;7.528;2023-11-19T01:54:26;100249.28;;;11.83;100.00
55010;BME280;40903;51.638;7.528;2023-11-19T01:56:54;100242.69;;;11.84;100.00
55010;BME280;40903;51.638;7.528;2023-11-19T01:59:22;100237.22;;;11.84;100.00
55010;BME280;40903;51.638;7.528;2023-11-19T02:01:54;100227.91;;;11.85;100.00
55010;BME280;40903;51.638;7.528;2023-11-19T02:04:20;100226.81;;;11.86;100.00
55010;BME280;40903;51.638;7.528;2023-11-19T02:06:48;100222.94;;;11.87;100.00
55010;BME280;40903;51.638;7.528;2023-11-19T02:09:15;100217.97;;;11.89;100.00
55010;BME280;40903;51.638;7.528;2023-11-19T02:11:45;100224.44;;;11.93;100.00
55010;BME280;40903;51.638;7.528;2023-11-19T02:14:13;100228.19;;;11.97;100.00
55010;BME280;40903;51.638;7.528;2023-11-19T02:16:39;100230.56;;;11.99;100.00
55010;BME280;40903;51.638;7.528;2023-11-19T02:19:04;100214.38;;;12.02;100.00
55010;BME280;40903;51.638;7.528;2023-11-19T02:21:31;100214.38;;;12.02;100.00
55010;BME280;40903;51.638;7.528;2023-11-19T02:23:57;100213.44;;;12.07;100.00
55010;BME280;40903;51.638;7.528;2023-11-19T02:26:37;100206.84;;;12.08;100.00
55010;BME280;40903;51.638;7.528;2023-11-19T02:29:04;100217.16;;;12.11;100.00
55010;BME280;40903;51.638;7.528;2023-11-19T02:31:32;100214.75;;;12.09;100.00
55010;BME280;40903;51.638;7.528;2023-11-19T02:33:59;100213.78;;;12.14;100.00
55010;BME280;40903;51.638;7.528;2023-11-19T02:36:26;100206.59;;;12.18;100.00
55010;BME280;40903;51.638;7.528;2023-11-19T02:38:51;100202.06;;;12.13;100.00
55010;BME280;40903;51.638;7.528;2023-11-19T02:41:17;100201.16;;;12.18;100.00
55010;BME280;40903;51.638;7.528;2023-11-19T02:43:43;100201.78;;;12.23;100.00
55010;BME280;40903;51.638;7.528;2023-11-19T02:46:08;100193.59;;;12.23;100.00
55010;BME280;40903;51.638;7.528;2023-11-19T02:48:34;100182.06;;;12.26;100.00
55010;BME280;40903;51.638;7.528;2023-11-19T02:51:04;100186.41;;;12.27;100.00
55010;BME280;40903;51.638;7.528;2023-11-19T02:53:31;100167.25;;;12.27;100.00
55010;BME280;40903;51.638;7.528;2023-11-19T02:55:57;100191.72;;;12.32;100.00
55010;BME280;40903;51.638;7.528;2023-11-19T02:58:43;100192.22;;;12.34;100.00
55010;BME280;40903;51.638;7.528;2023-11-19T03:01:10;100195.56;;;12.31;100.00
55010;BME280;40903;51.638;7.528;2023-11-19T03:03:44;100187.38;;;12.31;100.00
55010;BME280;40903;51.638;7.528;2023-11-19T03:06:14;100178.69;;;12.29;100.00
55010;BME280;40903;51.638;7.528;2023-11-19T03:08:40;100172.09;;;12.30;100.00
55010;BME280;40903;51.638;7.528;2023-11-19T03:11:05;100174.19;;;12.33;100.00
55010;BME280;40903;51.638;7.528;2023-11-19T03:13:31;100185.13;;;12.33;100.00
55010;BME280;40903;51.638;7.528;2023-11-19T03:15:57;100186.25;;;12.32;100.00
55010;BME280;40903;51.638;7.528;2023-11-19T03:18:25;100179.16;;;12.31;100.00
55010;BME280;40903;51.638;7.528;2023-11-19T03:20:50;100173.69;;;12.31;100.00
55010;BME280;40903;51.638;7.528;2023-11-19T03:23:17;100177.56;;;12.30;100.00
55010;BME280;40903;51.638;7.528;2023-11-19T03:25:43;100184.16;;;12.29;100.00
55010;BME280;40903;51.638;7.528;2023-11-19T03:28:09;100181.91;;;12.31;100.00
55010;BME280;40903;51.638;7.528;2023-11-19T03:30:36;100172.09;;;12.30;100.00
55010;BME280;40903;51.638;7.528;2023-11-19T03:33:02;100175.63;;;12.31;100.00
55010;BME280;40903;51.638;7.528;2023-11-19T03:35:28;100162.47;;;12.33;100.00
55010;BME280;40903;51.638;7.528;2023-11-19T03:37:54;100152.97;;;12.30;100.00
55010;BME280;40903;51.638;7.528;2023-11-19T03:40:20;100161.16;;;12.30;100.00
55010;BME280;40903;51.638;7.528;2023-11-19T03:42:46;100176.44;;;12.31;100.00
55010;BME280;40903;51.638;7.528;2023-11-19T03:45:12;100183.03;;;12.30;100.00
55010;BME280;40903;51.638;7.528;2023-11-19T03:47:38;100189.16;;;12.36;100.00
55010;BME280;40903;51.638;7.528;2023-11-19T03:50:07;100180.03;;;12.40;100.00
55010;BME280;40903;51.638;7.528;2023-11-19T03:52:34;100183.25;;;12.42;100.00
55010;BME280;40903;51.638;7.528;2023-11-19T03:54:59;100177.16;;;12.45;100.00
55010;BME280;40903;51.638;7.528;2023-11-19T03:57:27;100186.13;;;12.46;100.00
55010;BME280;40903;51.638;7.528;2023-11-19T03:59:53;100186.97;;;12.46;100.00
55010;BME280;40903;51.638;7.528;2023-11-19T04:02:18;100182.91;;;12.44;100.00
55010;BME280;40903;51.638;7.528;2023-11-19T04:04:44;100189.34;;;12.39;100.00
55010;BME280;40903;51.638;7.528;2023-11-19T04:07:10;100186.44;;;12.36;100.00
55010;BME280;40903;51.638;7.528;2023-11-19T04:09:35;100186.25;;;12.32;100.00
55010;BME280;40903;51.638;7.528;2023-11-19T04:12:03;100188.03;;;12.37;100.00
55010;BME280;40903;51.638;7.528;2023-11-19T04:14:28;100194.16;;;12.34;100.00
55010;BME280;40903;51.638;7.528;2023-11-19T04:16:54;100193.97;;;12.30;100.00
55010;BME280;40903;51.638;7.528;2023-11-19T04:19:20;100184.94;;;12.30;100.00
55010;BME280;40903;51.638;7.528;2023-11-19T04:21:46;100195.88;;;12.30;100.00
55010;BME280;40903;51.638;7.528;2023-11-19T04:24:12;100185.75;;;12.30;100.00
55010;BME280;40903;51.638;7.528;2023-11-19T04:26:44;100194.41;;;12.24;100.00
55010;BME280;40903;51.638;7.528;2023-11-19T04:29:14;100193.09;;;12.21;100.00
55010;BME280;40903;51.638;7.528;2023-11-19T04:31:41;100182.66;;;12.23;100.00
55010;BME280;40903;51.638;7.528;2023-11-19T04:34:07;100194.84;;;12.17;100.00
55010;BME280;40903;51.638;7.528;2023-11-19T04:36:33;100197.72;;;12.12;100.00
55010;BME280;40903;51.638;7.528;2023-11-19T04:39:00;100194.50;;;12.10;100.00
55010;BME280;40903;51.638;7.528;2023-11-19T04:41:26;100201.41;;;12.08;100.00
55010;BME280;40903;51.638;7.528;2023-11-19T04:43:55;100204.91;;;12.08;100.00
55010;BME280;40903;51.638;7.528;2023-11-19T04:46:21;100201.19;;;12.04;100.00
55010;BME280;40903;51.638;7.528;2023-11-19T04:48:49;100196.84;;;12.03;100.00
55010;BME280;40903;51.638;7.528;2023-11-19T04:51:14;100205.38;;;12.02;100.00
55010;BME280;40903;51.638;7.528;2023-11-19T04:53:40;100197.50;;;12.00;100.00
55010;BME280;40903;51.638;7.528;2023-11-19T04:56:10;100203.94;;;12.04;100.00
55010;BME280;40903;51.638;7.528;2023-11-19T04:58:37;100198.59;;;11.99;100.00
55010;BME280;40903;51.638;7.528;2023-11-19T05:01:05;100192.31;;;11.99;100.00
55010;BME280;40903;51.638;7.528;2023-11-19T05:03:31;100200.75;;;12.11;100.00
55010;BME280;40903;51.638;7.528;2023-11-19T05:05:58;100205.75;;;12.09;100.00
55010;BME280;40903;51.638;7.528;2023-11-19T05:08:23;100213.94;;;12.09;100.00
55010;BME280;40903;51.638;7.528;2023-11-19T05:10:49;100208.78;;;12.07;100.00
55010;BME280;40903;51.638;7.528;2023-11-19T05:13:15;100205.38;;;12.02;100.00
55010;BME280;40903;51.638;7.528;2023-11-19T05:15:41;100222.22;;;11.95;100.00
55010;BME280;40903;51.638;7.528;2023-11-19T05:18:06;100223.84;;;11.96;100.00
55010;BME280;40903;51.638;7.528;2023-11-19T05:20:32;100202.56;;;11.93;100.00
55010;BME280;40903;51.638;7.528;2023-11-19T05:22:58;100216.91;;;11.99;100.00
55010;BME280;40903;51.638;7.528;2023-11-19T05:25:26;100223.34;;;11.94;100.00
55010;BME280;40903;51.638;7.528;2023-11-19T05:27:52;100225.56;;;11.92;100.00
55010;BME280;40903;51.638;7.528;2023-11-19T05:30:18;100216.84;;;11.90;100.00
55010;BME280;40903;51.638;7.528;2023-11-19T05:32:43;100214.88;;;11.82;100.00
55010;BME280;40903;51.638;7.528;2023-11-19T05:35:09;100209.53;;;11.77;100.00
55010;BME280;40903;51.638;7.528;2023-11-19T05:37:35;100207.41;;;11.74;100.00
55010;BME280;40903;51.638;7.528;2023-11-19T05:40:01;100208.78;;;11.64;100.00
55010;BME280;40903;51.638;7.528;2023-11-19T05:42:28;100206.03;;;11.64;100.00
55010;BME280;40903;51.638;7.528;2023-11-19T05:44:54;100207.78;;;11.60;100.00
55010;BME280;40903;51.638;7.528;2023-11-19T05:47:20;100209.50;;;11.56;100.00
55010;BME280;40903;51.638;7.528;2023-11-19T05:49:45;100206.28;;;11.54;100.00
55010;BME280;40903;51.638;7.528;2023-11-19T05:52:11;100210.75;;;11.50;100.00
55010;BME280;40903;51.638;7.528;2023-11-19T05:54:38;100209.28;;;11.52;100.00
55010;BME280;40903;51.638;7.528;2023-11-19T05:57:06;100210.84;;;11.58;100.00
55010;BME280;40903;51.638;7.528;2023-11-19T05:59:35;100207.88;;;11.55;100.00
55010;BME280;40903;51.638;7.528;2023-11-19T06:02:02;100206.66;;;11.61;100.00
55010;BME280;40903;51.638;7.528;2023-11-19T06:04:28;100204.44;;;11.63;100.00
55010;BME280;40903;51.638;7.528;2023-11-19T06:06:54;100217.59;;;11.61;100.00
55010;BME280;40903;51.638;7.528;2023-11-19T06:09:22;100220.81;;;11.63;100.00
55010;BME280;40903;51.638;7.528;2023-11-19T06:11:51;100220.66;;;11.59;100.00
55010;BME280;40903;51.638;7.528;2023-11-19T06:14:17;100229.72;;;11.55;100.00
55010;BME280;40903;51.638;7.528;2023-11-19T06:16:43;100234.19;;;11.51;100.00
55010;BME280;40903;51.638;7.528;2023-11-19T06:19:09;100224.69;;;11.48;100.00
55010;BME280;40903;51.638;7.528;2023-11-19T06:21:36;100234.13;;;11.42;100.00
55010;BME280;40903;51.638;7.528;2023-11-19T06:24:02;100240.16;;;11.39;100.00
55010;BME280;40903;51.638;7.528;2023-11-19T06:26:28;100242.53;;;11.32;100.00
55010;BME280;40903;51.638;7.528;2023-11-19T06:28:54;100233.84;;;11.30;100.00
55010;BME280;40903;51.638;7.528;2023-11-19T06:31:19;100245.38;;;11.27;100.00
55010;BME280;40903;51.638;7.528;2023-11-19T06:33:46;100235.25;;;11.28;100.00
55010;BME280;40903;51.638;7.528;2023-11-19T06:36:14;100240.72;;;11.28;100.00
55010;BME280;40903;51.638;7.528;2023-11-19T06:38:41;100250.78;;;11.41;100.00
55010;BME280;40903;51.638;7.528;2023-11-19T06:41:08;100242.00;;;11.44;100.00
55010;BME280;40903;51.638;7.528;2023-11-19T06:43:35;100241.06;;;11.48;100.00
55010;BME280;40903;51.638;7.528;2023-11-19T06:46:01;100240.06;;;11.44;100.00
55010;BME280;40903;51.638;7.528;2023-11-19T06:48:27;100246.34;;;11.45;100.00
55010;BME280;40903;51.638;7.528;2023-11-19T06:50:52;100250.50;;;11.42;100.00
55010;BME280;40903;51.638;7.528;2023-11-19T06:53:19;100257.25;;;11.45;100.00
55010;BME280;40903;51.638;7.528;2023-11-19T06:55:44;100248.38;;;11.39;100.00
55010;BME280;40903;51.638;7.528;2023-11-19T06:58:10;100247.25;;;11.40;100.00
55010;BME280;40903;51.638;7.528;2023-11-19T07:00:37;100253.22;;;11.42;100.00
55010;BME280;40903;51.638;7.528;2023-11-19T07:03:03;100257.25;;;11.45;100.00
55010;BME280;40903;51.638;7.528;2023-11-19T07:05:28;100259.47;;;11.43;100.00
55010;BME280;40903;51.638;7.528;2023-11-19T07:07:55;100263.34;;;11.42;100.00
55010;BME280;40903;51.638;7.528;2023-11-19T07:10:21;100273.34;;;11.46;100.00
55010;BME280;40903;51.638;7.528;2023-11-19T07:12:46;100271.72;;;11.45;100.00
55010;BME280;40903;51.638;7.528;2023-11-19T07:15:12;100268.56;;;11.52;100.00
55010;BME280;40903;51.638;7.528;2023-11-19T07:17:41;100272.81;;;11.58;100.00
55010;BME280;40903;51.638;7.528;2023-11-19T07:20:07;100279.13;;;11.58;100.00
55010;BME280;40903;51.638;7.528;2023-11-19T07:22:33;100285.69;;;11.57;100.00
55010;BME280;40903;51.638;7.528;2023-11-19T07:24:58;100288.59;;;11.61;100.00
55010;BME280;40903;51.638;7.528;2023-11-19T07:27:24;100291.31;;;11.61;100.00
55010;BME280;40903;51.638;7.528;2023-11-19T07:29:49;100291.81;;;11.63;100.00
55010;BME280;40903;51.638;7.528;2023-11-19T07:32:15;100291.81;;;11.63;100.00
55010;BME280;40903;51.638;7.528;2023-11-19T07:34:40;100296.16;;;11.64;100.00
55010;BME280;40903;51.638;7.528;2023-11-19T07:37:06;100302.66;;;11.68;100.00
55010;BME280;40903;51.638;7.528;2023-11-19T07:39:32;100302.53;;;11.73;100.00
55010;BME280;40903;51.638;7.528;2023-11-19T07:41:58;100294.03;;;11.74;100.00
55010;BME280;40903;51.638;7.528;2023-11-19T07:44:23;100291.59;;;11.73;100.00
55010;BME280;40903;51.638;7.528;2023-11-19T07:46:50;100290.97;;;11.75;100.00
55010;BME280;40903;51.638;7.528;2023-11-19T07:49:15;100295.81;;;11.78;100.00
55010;BME280;40903;51.638;7.528;2023-11-19T07:51:40;100294.22;;;11.77;100.00
55010;BME280;40903;51.638;7.528;2023-11-19T07:54:07;100297.88;;;11.73;100.00
55010;BME280;40903;51.638;7.528;2023-11-19T07:56:33;100309.59;;;11.73;100.00
55010;BME280;40903;51.638;7.528;2023-11-19T07:59:00;100310.91;;;11.76;100.00
55010;BME280;40903;51.638;7.528;2023-11-19T08:01:26;100310.44;;;11.74;100.00
55010;BME280;40903;51.638;7.528;2023-11-19T08:03:51;100324.59;;;11.76;100.00
55010;BME280;40903;51.638;7.528;2023-11-19T08:06:17;100315.47;;;11.80;100.00
55010;BME280;40903;51.638;7.528;2023-11-19T08:08:43;100311.00;;;11.84;100.00
55010;BME280;40903;51.638;7.528;2023-11-19T08:11:08;100318.06;;;11.85;100.00
55010;BME280;40903;51.638;7.528;2023-11-19T08:13:34;100316.13;;;11.86;100.00
55010;BME280;40903;51.638;7.528;2023-11-19T08:15:59;100319.56;;;11.91;100.00
55010;BME280;40903;51.638;7.528;2023-11-19T08:18:25;100333.63;;;11.98;100.00
55010;BME280;40903;51.638;7.528;2023-11-19T08:20:50;100318.72;;;12.04;100.00
55010;BME280;40903;51.638;7.528;2023-11-19T08:23:19;100326.63;;;12.06;100.00
55010;BME280;40903;51.638;7.528;2023-11-19T08:25:45;100328.41;;;12.10;100.00
55010;BME280;40903;51.638;7.528;2023-11-19T08:28:11;100327.47;;;12.15;100.00
55010;BME280;40903;51.638;7.528;2023-11-19T08:30:36;100338.72;;;12.13;100.00
55010;BME280;40903;51.638;7.528;2023-11-19T08:33:02;100338.72;;;12.13;100.00
55010;BME280;40903;51.638;7.528;2023-11-19T08:35:31;100339.84;;;12.12;100.00
55010;BME280;40903;51.638;7.528;2023-11-19T08:37:57;100341.47;;;12.13;100.00
55010;BME280;40903;51.638;7.528;2023-11-19T08:40:24;100344.81;;;12.10;100.00
55010;BME280;40903;51.638;7.528;2023-11-19T08:42:51;100343.50;;;12.08;100.00
55010;BME280;40903;51.638;7.528;2023-11-19T08:45:17;100350.59;;;12.09;100.00
55010;BME280;40903;51.638;7.528;2023-11-19T08:47:43;100342.09;;;12.10;100.00
55010;BME280;40903;51.638;7.528;2023-11-19T08:50:11;100334.06;;;12.14;100.00
55010;BME280;40903;51.638;7.528;2023-11-19T08:52:37;100347.72;;;12.14;100.00
55010;BME280;40903;51.638;7.528;2023-11-19T08:55:03;100346.94;;;12.13;100.00
55010;BME280;40903;51.638;7.528;2023-11-19T08:57:31;100351.56;;;12.13;100.00
55010;BME280;40903;51.638;7.528;2023-11-19T08:59:56;100349.97;;;12.12;100.00
55010;BME280;40903;51.638;7.528;2023-11-19T09:02:22;100336.50;;;12.15;100.00
55010;BME280;40903;51.638;7.528;2023-11-19T09:04:47;100341.19;;;12.23;100.00
55010;BME280;40903;51.638;7.528;2023-11-19T09:07:13;100339.00;;;12.25;100.00
55010;BME280;40903;51.638;7.528;2023-11-19T09:09:38;100333.41;;;12.30;100.00
55010;BME280;40903;51.638;7.528;2023-11-19T09:12:04;100339.22;;;12.37;100.00
55010;BME280;40903;51.638;7.528;2023-11-19T09:14:30;100353.78;;;12.46;100.00
55010;BME280;40903;51.638;7.528;2023-11-19T09:16:56;100342.88;;;12.55;100.00
55010;BME280;40903;51.638;7.528;2023-11-19T09:19:21;100347.09;;;12.61;100.00
55010;BME280;40903;51.638;7.528;2023-11-19T09:21:47;100355.75;;;12.76;100.00
55010;BME280;40903;51.638;7.528;2023-11-19T09:24:15;100342.94;;;12.85;100.00
55010;BME280;40903;51.638;7.528;2023-11-19T09:26:40;100350.50;;;12.88;100.00
55010;BME280;40903;51.638;7.528;2023-11-19T09:29:09;100348.13;;;12.95;100.00
55010;BME280;40903;51.638;7.528;2023-11-19T09:31:37;100334.94;;;12.97;100.00
55010;BME280;40903;51.638;7.528;2023-11-19T09:34:03;100357.47;;;12.94;100.00
55010;BME280;40903;51.638;7.528;2023-11-19T09:36:29;100358.06;;;12.91;100.00
55010;BME280;40903;51.638;7.528;2023-11-19T09:38:55;100351.91;;;12.86;100.00
55010;BME280;40903;51.638;7.528;2023-11-19T09:41:21;100345.97;;;12.84;100.00
55010;BME280;40903;51.638;7.528;2023-11-19T09:43:46;100355.94;;;12.80;100.00
55010;BME280;40903;51.638;7.528;2023-11-19T09:46:14;100365.25;;;12.79;100.00
55010;BME280;40903;51.638;7.528;2023-11-19T09:48:40;100353.50;;;12.78;100.00
55010;BME280;40903;51.638;7.528;2023-11-19T09:51:11;100358.16;;;12.78;100.00
55010;BME280;40903;51.638;7.528;2023-11-19T09:53:37;100347.22;;;12.78;100.00
55010;BME280;40903;51.638;7.528;2023-11-19T09:56:04;100345.63;;;12.77;100.00
55010;BME280;40903;51.638;7.528;2023-11-19T09:58:31;100358.28;;;12.73;100.00
55010;BME280;40903;51.638;7.528;2023-11-19T10:00:57;100347.47;;;12.68;100.00
55010;BME280;40903;51.638;7.528;2023-11-19T10:03:32;100338.59;;;12.62;100.00
55010;BME280;40903;51.638;7.528;2023-11-19T10:06:00;100351.16;;;12.63;100.00
55010;BME280;40903;51.638;7.528;2023-11-19T10:08:26;100352.91;;;12.59;100.00
55010;BME280;40903;51.638;7.528;2023-11-19T10:10:52;100353.38;;;12.61;100.00
55010;BME280;40903;51.638;7.528;2023-11-19T10:13:18;100347.66;;;12.71;100.00
55010;BME280;40903;51.638;7.528;2023-11-19T10:15:44;100328.69;;;12.75;100.00
55010;BME280;40903;51.638;7.528;2023-11-19T10:18:09;100347.84;;;12.75;100.00
55010;BME280;40903;51.638;7.528;2023-11-19T10:20:41;100340.44;;;12.75;100.00
55010;BME280;40903;51.638;7.528;2023-11-19T10:23:07;100340.16;;;12.77;100.00
55010;BME280;40903;51.638;7.528;2023-11-19T10:25:33;100328.19;;;12.73;100.00
55010;BME280;40903;51.638;7.528;2023-11-19T10:27:59;100332.03;;;12.72;100.00
55010;BME280;40903;51.638;7.528;2023-11-19T10:30:29;100338.44;;;12.67;100.00
55010;BME280;40903;51.638;7.528;2023-11-19T10:33:13;100332.50;;;12.65;100.00
55010;BME280;40903;51.638;7.528;2023-11-19T10:35:56;100328.34;;;12.68;100.00
55010;BME280;40903;51.638;7.528;2023-11-19T10:38:23;100331.56;;;12.70;100.00
55010;BME280;40903;51.638;7.528;2023-11-19T10:40:49;100328.81;;;12.70;100.00
55010;BME280;40903;51.638;7.528;2023-11-19T10:43:19;100327.41;;;12.72;100.00
55010;BME280;40903;51.638;7.528;2023-11-19T10:45:45;100317.25;;;12.73;100.00
55010;BME280;40903;51.638;7.528;2023-11-19T10:48:10;100318.50;;;12.67;100.00
55010;BME280;40903;51.638;7.528;2023-11-19T10:50:39;100331.47;;;12.53;100.00
55010;BME280;40903;51.638;7.528;2023-11-19T10:53:06;100335.13;;;12.48;100.00
55010;BME280;40903;51.638;7.528;2023-11-19T10:55:33;100335.88;;;12.40;100.00
55010;BME280;40903;51.638;7.528;2023-11-19T10:58:02;100337.00;;;12.39;100.00
55010;BME280;40903;51.638;7.528;2023-11-19T11:00:52;100325.56;;;12.37;100.00
55010;BME280;40903;51.638;7.528;2023-11-19T11:03:21;100330.03;;;12.33;100.00
55010;BME280;40903;51.638;7.528;2023-11-19T11:05:49;100324.56;;;12.33;100.00
55010;BME280;40903;51.638;7.528;2023-11-19T11:08:16;100332.63;;;12.38;100.00
55010;BME280;40903;51.638;7.528;2023-11-19T11:13:17;100324.50;;;12.47;100.00
55010;BME280;40903;51.638;7.528;2023-11-19T11:15:44;100321.16;;;12.50;100.00
55010;BME280;40903;51.638;7.528;2023-11-19T11:18:12;100326.47;;;12.55;100.00
55010;BME280;40903;51.638;7.528;2023-11-19T11:20:39;100327.09;;;12.52;100.00
55010;BME280;40903;51.638;7.528;2023-11-19T11:36:38;100330.78;;;12.47;100.00
55010;BME280;40903;51.638;7.528;2023-11-19T11:39:09;100333.00;;;12.45;100.00
55010;BME280;40903;51.638;7.528;2023-11-19T11:41:34;100333.00;;;12.45;100.00
55010;BME280;40903;51.638;7.528;2023-11-19T11:44:00;100325.13;;;12.44;100.00
55010;BME280;40903;51.638;7.528;2023-11-19T11:49:02;100330.72;;;12.39;100.00
55010;BME280;40903;51.638;7.528;2023-11-19T11:54:10;100314.38;;;12.47;100.00
55010;BME280;40903;51.638;7.528;2023-11-19T11:56:38;100303.91;;;12.49;100.00
55010;BME280;40903;51.638;7.528;2023-11-19T11:59:19;100302.50;;;12.52;100.00
55010;BME280;40903;51.638;7.528;2023-11-19T12:02:00;100303.66;;;12.59;100.00
55010;BME280;40903;51.638;7.528;2023-11-19T12:04:27;100301.59;;;12.65;100.00
55010;BME280;40903;51.638;7.528;2023-11-19T12:07:06;100296.63;;;12.67;100.00
55010;BME280;40903;51.638;7.528;2023-11-19T12:09:32;100304.38;;;12.73;100.00
55010;BME280;40903;51.638;7.528;2023-11-19T12:15:08;100292.66;;;12.81;100.00
55010;BME280;40903;51.638;7.528;2023-11-19T12:17:48;100287.69;;;12.83;100.00
55010;BME280;40903;51.638;7.528;2023-11-19T12:20:15;100284.94;;;12.83;100.00
55010;BME280;40903;51.638;7.528;2023-11-19T12:22:43;100282.25;;;12.92;100.00
55010;BME280;40903;51.638;7.528;2023-11-19T12:25:10;100280.38;;;13.01;100.00
55010;BME280;40903;51.638;7.528;2023-11-19T12:27:39;100292.03;;;13.15;100.00
55010;BME280;40903;51.638;7.528;2023-11-19T12:30:05;100288.66;;;13.26;100.00
55010;BME280;40903;51.638;7.528;2023-11-19T12:32:41;100275.16;;;13.30;100.00
55010;BME280;40903;51.638;7.528;2023-11-19T12:35:11;100291.41;;;13.26;100.00
55010;BME280;40903;51.638;7.528;2023-11-19T12:37:44;100271.09;;;13.19;100.00
55010;BME280;40903;51.638;7.528;2023-11-19T12:40:21;100282.22;;;13.14;100.00
55010;BME280;40903;51.638;7.528;2023-11-19T12:42:50;100280.91;;;13.11;100.00
55010;BME280;40903;51.638;7.528;2023-11-19T12:45:17;100272.03;;;13.06;100.00
55010;BME280;40903;51.638;7.528;2023-11-19T12:47:44;100277.69;;;13.09;100.00
55010;BME280;40903;51.638;7.528;2023-11-19T12:50:12;100268.81;;;13.12;100.00
55010;BME280;40903;51.638;7.528;2023-11-19T12:52:38;100266.72;;;13.09;100.00
55010;BME280;40903;51.638;7.528;2023-11-19T12:55:28;100256.41;;;13.06;100.00
55010;BME280;40903;51.638;7.528;2023-11-19T12:57:54;100252.72;;;13.11;100.00
55010;BME280;40903;51.638;7.528;2023-11-19T13:00:24;100260.00;;;13.15;100.00
55010;BME280;40903;51.638;7.528;2023-11-19T13:02:52;100260.00;;;13.15;100.00
55010;BME280;40903;51.638;7.528;2023-11-19T13:05:29;100252.25;;;13.09;100.00